KHVR

Havre City-County Airport

Havre, Montana, USA
METAR KHVR 141653Z AUTO 22010KT 10SM CLR 09/M13 A2992 RMK AO2 SLP144 T00891128
Observed Flight Rules
Dec-14 @ 16:53 UTC (10 minutes ago) Visual Flight Rules
Wind Visibility Clouds
220° at 10 knots 10 miles
  • Clear skies
Temperatures Readings
Current 9°C / 48°F
Dewpoint -13°C / 9°F
Humidity 20%
Altimeter 29.92" Hg
Pressure 1014.4 hPa
Elevation 787
METAR KHVR 141653Z AUTO 22010KT 10SM CLR 09/M13 A2992 RMK AO2 SLP144 T00891128
Observed Flight Rules
Dec-14 @ 16:53 UTC
(10 minutes ago)
VFR
Wind Visibility
220° at 10 knots 10 miles
Clouds
  • Clear skies
Temperature Dewpoint
9°C / 48°F -13°C / 9°F
Humidity Altimeter Pressure
20% 29.92" Hg 1014.4 hPa